Time;durP1;ratioP1;P1;durP2;ratioP2;P2;SDS_P1;SDS_P2;PMS_P1;PMS_P2;Temp;Humidity;BMP_temperature;BMP_pressure;BME280_temperature;BME280_humidity;BME280_pressure;Samples;Min_cycle;Max_cycle;Signal;HPM_P1;HPM_P2
2021/06/29 00:02:23;;;;;;;;;9.67;9.00;;;;;24.53;52.21;98385.53;4789141;28;102474;-81
2021/06/29 00:05:04;;;;;;;;;10.33;10.33;;;;;24.45;52.04;98373.16;4829998;28;108780;-82
2021/06/29 00:07:48;;;;;;;;;11.67;10.67;;;;;24.49;52.01;98373.41;4821822;28;108375;-84
2021/06/29 00:10:34;;;;;;;;;10.67;8.33;;;;;24.50;52.01;98375.03;4864236;28;102666;-82
2021/06/29 00:13:23;;;;;;;;;8.00;8.00;;;;;24.40;52.03;98351.16;4797069;28;102590;-82
2021/06/29 00:16:10;;;;;;;;;9.00;7.67;;;;;24.46;51.81;98362.94;4850311;28;101757;-82
2021/06/29 00:18:54;;;;;;;;;9.33;9.33;;;;;24.48;52.01;98363.47;4845842;28;102173;-81
2021/06/29 00:21:39;;;;;;;;;12.33;9.33;;;;;24.38;51.87;98347.84;4846875;28;102700;-83
2021/06/29 00:24:26;;;;;;;;;10.33;10.33;;;;;24.46;52.05;98357.41;4783208;28;102352;-82
2021/06/29 00:27:06;;;;;;;;;8.33;7.33;;;;;24.48;51.68;98363.47;4867023;28;102089;-82
2021/06/29 00:29:47;;;;;;;;;9.67;9.67;;;;;24.38;51.88;98338.72;4867581;28;106304;-82
2021/06/29 00:32:27;;;;;;;;;10.33;9.67;;;;;24.46;51.66;98357.41;4803043;28;102294;-82
2021/06/29 00:35:12;;;;;;;;;10.00;9.00;;;;;24.42;51.56;98350.81;4833221;28;102445;-84
2021/06/29 00:37:56;;;;;;;;;9.67;9.67;;;;;24.40;51.93;98336.50;4792614;28;103593;-83
2021/06/29 00:40:41;;;;;;;;;12.00;11.00;;;;;24.40;51.78;98342.84;4836019;28;102551;-83
2021/06/29 00:43:22;;;;;;;;;9.00;8.67;;;;;24.41;51.57;98346.41;4790806;28;102427;-81
2021/06/29 00:46:03;;;;;;;;;12.33;10.00;;;;;24.32;51.84;98326.91;4825844;28;102250;-83
2021/06/29 00:48:44;;;;;;;;;10.00;9.00;;;;;24.39;51.74;98345.91;4838222;28;101964;-82
2021/06/29 00:51:25;;;;;;;;;11.67;10.33;;;;;24.38;51.39;98333.19;4787034;28;107889;-83
2021/06/29 00:54:06;;;;;;;;;9.33;9.33;;;;;24.34;51.52;98329.38;4845846;28;101410;-84
2021/06/29 00:56:47;;;;;;;;;10.00;9.00;;;;;24.35;51.42;98328.28;4852511;28;101752;-82
2021/06/29 00:59:28;;;;;;;;;11.00;10.33;;;;;24.35;51.58;98329.09;4855334;28;101952;-82
2021/06/29 01:01:56;;;;;;;;;10.00;9.00;;;;;24.32;51.36;98326.09;4845060;28;104147;-83
2021/06/29 01:04:37;;;;;;;;;6.67;6.67;;;;;24.29;51.34;98321.16;4788426;28;102904;-82
2021/06/29 01:07:18;;;;;;;;;10.00;9.00;;;;;24.37;51.55;98331.53;4832697;28;102256;-83
2021/06/29 01:10:09;;;;;;;;;10.00;10.00;;;;;24.31;51.49;98325.28;4801062;28;102229;-82
2021/06/29 01:12:55;;;;;;;;;9.33;9.00;;;;;24.31;51.26;98324.47;4831205;28;106299;-82
2021/06/29 01:15:43;;;;;;;;;9.33;8.00;;;;;24.26;51.56;98311.53;4849617;28;101972;-82
2021/06/29 01:18:17;;;;;;;;;10.33;9.67;;;;;24.25;51.50;98309.88;4854470;28;103348;-81
2021/06/29 01:21:02;;;;;;;;;8.33;8.33;;;;;24.33;51.48;98323.03;4804040;28;102077;-83
2021/06/29 01:23:56;;;;;;;;;10.67;8.00;;;;;24.31;51.11;98311.47;4850435;28;106242;-83
2021/06/29 01:26:48;;;;;;;;;11.67;9.33;;;;;24.28;51.31;98306.53;4795784;28;101675;-82
2021/06/29 01:29:29;;;;;;;;;10.00;10.00;;;;;24.21;51.37;98283.16;4862680;28;102079;-83
2021/06/29 01:32:20;;;;;;;;;8.00;7.33;;;;;24.29;51.01;98301.81;4844687;28;102488;-82
2021/06/29 01:34:57;;;;;;;;;11.33;11.33;;;;;24.20;50.60;98292.53;4800186;28;106528;-81
2021/06/29 01:37:35;;;;;;;;;9.33;9.00;;;;;24.30;50.67;98315.34;4870072;28;101818;-82
2021/06/29 01:40:30;;;;;;;;;9.33;8.33;;;;;24.28;50.81;98311.22;4848030;28;102151;-82
2021/06/29 01:43:21;;;;;;;;;8.67;8.67;;;;;24.25;50.85;98312.66;4774719;28;102397;-82
2021/06/29 01:46:07;;;;;;;;;10.00;9.00;;;;;24.21;50.96;98310.78;4776349;28;106540;-83
2021/06/29 01:48:54;;;;;;;;;10.33;9.00;;;;;24.20;51.00;98309.13;4874607;28;102269;-83
2021/06/29 01:51:35;;;;;;;;;10.00;9.67;;;;;24.17;50.80;98304.19;4804779;28;102096;-82
2021/06/29 01:54:16;;;;;;;;;8.67;8.67;;;;;24.19;50.55;98308.28;4809568;28;103372;-82
2021/06/29 01:56:57;;;;;;;;;11.33;10.00;;;;;24.15;50.88;98304.44;4805978;28;108317;-82
2021/06/29 01:59:43;;;;;;;;;11.67;11.00;;;;;24.20;50.97;98320.16;4842951;28;102242;-83
2021/06/29 02:02:24;;;;;;;;;9.33;9.00;;;;;24.19;50.75;98313.81;4835252;28;102245;-82
2021/06/29 02:05:06;;;;;;;;;11.00;10.00;;;;;24.16;50.84;98313.59;4839144;28;102169;-82
2021/06/29 02:07:33;;;;;;;;;9.33;8.67;;;;;24.08;50.64;98287.44;4862138;28;103414;-83
2021/06/29 02:10:15;;;;;;;;;9.00;7.67;;;;;24.12;50.43;98285.72;4843727;28;103233;-81
2021/06/29 02:12:57;;;;;;;;;11.67;9.33;;;;;24.08;50.61;98278.31;4828653;28;101779;-83
2021/06/29 02:15:25;;;;;;;;;8.00;7.50;;;;;24.17;50.54;98293.97;4850867;28;102027;-83
2021/06/29 02:18:06;;;;;;;;;8.67;8.67;;;;;24.12;50.43;98290.41;4857602;28;104081;-83
2021/06/29 02:20:48;;;;;;;;;8.00;8.00;;;;;24.14;50.50;98288.16;4855150;28;102574;-84
2021/06/29 02:23:29;;;;;;;;;9.67;9.33;;;;;24.09;50.22;98289.06;4803568;28;101894;-82
2021/06/29 02:26:08;;;;;;;;;10.67;9.67;;;;;24.09;50.05;98285.50;4844675;28;101831;-82
2021/06/29 02:28:48;;;;;;;;;8.00;8.00;;;;;24.07;50.29;98284.94;4849834;28;111155;-82
2021/06/29 02:31:29;;;;;;;;;9.00;9.00;;;;;24.15;50.18;98300.88;4796415;28;101810;-81
2021/06/29 02:34:04;;;;;;;;;10.00;10.00;;;;;24.12;50.01;98296.75;4870789;28;101887;-80
2021/06/29 02:36:45;;;;;;;;;9.33;9.33;;;;;24.06;49.92;98292.41;4858367;28;102155;-81
2021/06/29 02:39:12;;;;;;;;;9.67;9.67;;;;;24.02;50.00;98281.16;4870751;28;103098;-82
2021/06/29 02:41:40;;;;;;;;;11.00;9.67;;;;;24.05;49.94;98288.00;4878383;28;101188;-81
2021/06/29 02:44:09;;;;;;;;;11.00;11.00;;;;;24.11;50.00;98306.16;4859500;28;102309;-83
2021/06/29 02:46:50;;;;;;;;;9.00;9.00;;;;;24.11;49.66;98308.09;4861707;28;101889;-81
2021/06/29 02:49:31;;;;;;;;;9.33;8.33;;;;;23.98;50.01;98288.38;4862955;28;107899;-82
2021/06/29 02:52:12;;;;;;;;;10.67;9.00;;;;;24.08;49.44;98305.94;4858996;28;102017;-81
2021/06/29 02:54:39;;;;;;;;;9.67;9.00;;;;;24.02;49.64;98300.47;4859432;28;102624;-81
2021/06/29 02:57:07;;;;;;;;;9.67;9.67;;;;;24.08;49.57;98308.69;4871992;28;101867;-82
2021/06/29 02:59:35;;;;;;;;;9.00;9.00;;;;;24.05;49.46;98296.28;4855542;28;102786;-82
2021/06/29 03:02:16;;;;;;;;;10.33;10.00;;;;;24.06;49.45;98299.88;4848203;28;101864;-82
2021/06/29 03:04:56;;;;;;;;;9.00;8.67;;;;;24.05;49.30;98303.75;4840635;28;102208;-83
2021/06/29 03:07:25;;;;;;;;;9.67;9.00;;;;;24.02;48.86;98296.88;4858718;28;104180;-82
2021/06/29 03:10:06;;;;;;;;;10.67;8.67;;;;;23.97;49.19;98306.06;4794939;28;104465;-80
2021/06/29 03:12:47;;;;;;;;;11.00;10.33;;;;;24.01;49.26;98307.13;4857146;28;102575;-82
2021/06/29 03:15:28;;;;;;;;;10.67;9.67;;;;;23.95;48.92;98302.78;4857091;28;101664;-80
2021/06/29 03:18:09;;;;;;;;;9.33;8.67;;;;;23.97;48.62;98300.53;4842216;28;108154;-82
2021/06/29 03:20:50;;;;;;;;;11.00;10.00;;;;;23.87;48.77;98286.84;4831147;28;105466;-82
2021/06/29 03:23:31;;;;;;;;;9.67;9.33;;;;;23.91;48.41;98307.22;4836795;28;102189;-81
2021/06/29 03:25:58;;;;;;;;;10.33;9.67;;;;;23.90;48.67;98300.09;4841666;28;103828;-80
2021/06/29 03:28:26;;;;;;;;;10.67;8.00;;;;;23.90;48.67;98302.03;4859962;28;102622;-82
2021/06/29 03:31:07;;;;;;;;;9.00;8.33;;;;;23.97;48.52;98310.75;4820091;28;103571;-81
2021/06/29 03:33:47;;;;;;;;;11.00;9.67;;;;;23.94;48.41;98317.72;4851849;28;102426;-81
2021/06/29 03:36:30;;;;;;;;;10.00;9.00;;;;;23.92;47.80;98306.13;4829006;28;102611;-82
2021/06/29 03:39:11;;;;;;;;;9.00;9.00;;;;;23.86;48.13;98293.50;4836455;28;102943;-82
2021/06/29 03:41:52;;;;;;;;;9.33;9.33;;;;;23.91;48.23;98300.91;4857555;28;108297;-80
2021/06/29 03:44:33;;;;;;;;;7.67;6.67;;;;;23.93;48.42;98310.53;4796142;28;101332;-84
2021/06/29 03:47:14;;;;;;;;;7.67;7.67;;;;;23.81;48.17;98285.28;4819951;28;102291;-82
2021/06/29 03:49:55;;;;;;;;;8.00;8.00;;;;;23.87;48.08;98300.66;4853692;28;102004;-81
2021/06/29 03:52:23;;;;;;;;;10.00;8.33;;;;;23.90;48.14;98302.84;4850914;28;108965;-81
2021/06/29 03:54:55;;;;;;;;;11.00;10.00;;;;;23.85;47.92;98291.84;4852401;28;102480;-81
2021/06/29 03:57:23;;;;;;;;;10.00;9.00;;;;;23.86;48.17;98295.44;4857533;28;102501;-81
2021/06/29 03:59:51;;;;;;;;;5.00;5.00;;;;;23.85;47.61;98297.38;4828862;28;101727;-81
2021/06/29 04:02:32;;;;;;;;;6.67;6.67;;;;;23.81;47.46;98289.97;4790683;28;108301;-80
2021/06/29 04:05:16;;;;;;;;;9.33;8.67;;;;;23.86;47.69;98299.03;4863576;28;102827;-81
2021/06/29 04:07:57;;;;;;;;;11.00;8.67;;;;;23.80;47.98;98291.91;4835335;28;103422;-82
2021/06/29 04:10:38;;;;;;;;;9.67;9.33;;;;;23.80;47.81;98283.63;4854441;28;101978;-81
2021/06/29 04:13:05;;;;;;;;;8.33;8.33;;;;;23.86;47.77;98293.50;4853857;28;103067;-81
2021/06/29 04:15:33;;;;;;;;;8.00;8.00;;;;;23.76;47.59;98277.06;4872225;28;103010;-82
2021/06/29 04:18:00;;;;;;;;;11.67;11.00;;;;;23.86;47.60;98293.50;4846217;28;102214;-80
2021/06/29 04:20:28;;;;;;;;;6.67;6.67;;;;;23.84;47.51;98290.22;4865209;28;102362;-78
2021/06/29 04:22:55;;;;;;;;;8.33;8.00;;;;;23.83;47.51;98299.59;4846897;28;102072;-81
2021/06/29 04:25:23;;;;;;;;;11.00;10.00;;;;;23.74;47.65;98279.28;4867385;28;101418;-80
2021/06/29 04:28:04;;;;;;;;;9.00;9.00;;;;;23.72;47.42;98261.38;4869596;28;102491;-81
2021/06/29 04:30:45;;;;;;;;;9.33;7.33;;;;;23.81;47.29;98278.94;4863683;28;102315;-81
2021/06/29 04:33:29;;;;;;;;;8.00;8.00;;;;;23.83;47.37;98283.03;4872377;28;108003;-81
2021/06/29 04:36:09;;;;;;;;;9.00;8.33;;;;;23.75;47.21;98280.94;4777777;28;102772;-81
2021/06/29 04:38:50;;;;;;;;;9.00;9.00;;;;;23.74;47.04;98276.50;4840199;28;102822;-83
2021/06/29 04:41:19;;;;;;;;;7.00;7.00;;;;;23.76;47.22;98276.22;4859923;28;102518;-81
2021/06/29 04:44:00;;;;;;;;;9.00;7.67;;;;;23.81;47.00;98289.97;4856629;28;108154;-81
2021/06/29 04:46:41;;;;;;;;;8.33;7.33;;;;;23.73;46.97;98277.63;4856740;28;103096;-83
2021/06/29 04:49:09;;;;;;;;;7.00;7.00;;;;;23.72;47.00;98276.00;4842914;28;102498;-81
2021/06/29 04:51:37;;;;;;;;;10.00;9.67;;;;;23.78;47.09;98280.31;4860787;28;102727;-81
2021/06/29 04:54:18;;;;;;;;;7.33;7.00;;;;;23.74;46.97;98271.00;4821145;28;104772;-82
2021/06/29 04:56:59;;;;;;;;;6.67;6.67;;;;;23.80;47.14;98285.56;4866609;28;102530;-83
2021/06/29 05:00:10;;;;;;;;;8.33;8.33;;;;;23.71;46.76;98271.59;4726432;28;103219;-81
2021/06/29 05:02:51;;;;;;;;;11.00;7.67;;;;;23.71;46.88;98262.47;4837193;28;102011;-81
2021/06/29 05:05:22;;;;;;;;;8.00;8.00;;;;;23.79;46.88;98272.88;4844256;28;103114;-82
2021/06/29 05:07:50;;;;;;;;;7.67;7.67;;;;;23.79;46.82;98283.91;4858150;28;102174;-81
2021/06/29 05:10:18;;;;;;;;;8.33;7.67;;;;;23.69;46.63;98264.69;4841279;28;101906;-81
2021/06/29 05:12:59;;;;;;;;;11.00;8.33;;;;;23.74;46.76;98267.41;4851464;28;101700;-81
2021/06/29 05:15:26;;;;;;;;;10.00;9.33;;;;;23.78;46.76;98273.97;4870280;28;106365;-83
2021/06/29 05:18:07;;;;;;;;;8.67;7.67;;;;;23.77;46.63;98284.22;4856279;28;102642;-83
2021/06/29 05:20:48;;;;;;;;;6.67;6.67;;;;;23.70;46.61;98280.97;4849734;28;102252;-82
2021/06/29 05:23:29;;;;;;;;;8.00;8.00;;;;;23.77;46.68;98298.03;4867601;28;109196;-81
2021/06/29 05:26:10;;;;;;;;;7.67;7.67;;;;;23.78;46.64;98296.06;4781500;28;108381;-81
2021/06/29 05:28:51;;;;;;;;;7.33;7.00;;;;;23.78;46.72;98288.59;4873052;28;101884;-81
2021/06/29 05:31:32;;;;;;;;;9.33;6.67;;;;;23.76;46.54;98281.75;4830366;28;101949;-80
2021/06/29 05:34:13;;;;;;;;;7.00;7.00;;;;;23.78;46.54;98279.50;4834033;28;102338;-81
2021/06/29 05:36:54;;;;;;;;;5.67;5.67;;;;;23.77;46.34;98273.19;4864066;28;103961;-82
2021/06/29 05:39:35;;;;;;;;;8.67;7.00;;;;;23.69;46.52;98259.19;4862739;28;103135;-80
2021/06/29 05:42:15;;;;;;;;;7.67;7.33;;;;;23.76;46.48;98260.50;4845999;28;101955;-83
2021/06/29 05:44:56;;;;;;;;;7.00;6.67;;;;;23.73;46.57;98255.53;4857841;28;102441;-81
2021/06/29 05:47:38;;;;;;;;;6.00;6.00;;;;;23.75;46.50;98250.56;4842814;28;103611;-83
2021/06/29 05:50:18;;;;;;;;;7.67;6.33;;;;;23.74;46.75;98245.31;4846413;28;102388;-82
2021/06/29 05:53:00;;;;;;;;;9.00;7.33;;;;;23.83;46.49;98260.94;4854342;28;102085;-81
2021/06/29 05:55:41;;;;;;;;;9.00;8.67;;;;;23.74;46.62;98245.31;4797756;28;102825;-81
2021/06/29 05:58:16;;;;;;;;;6.00;6.00;;;;;23.85;46.63;98266.19;4850557;28;101968;-82
2021/06/29 06:00:56;;;;;;;;;6.00;6.00;;;;;23.84;46.86;98267.28;4867801;28;101777;-82
2021/06/29 06:03:37;;;;;;;;;5.67;5.67;;;;;23.83;46.74;98255.41;4854875;28;101835;-81
2021/06/29 06:06:18;;;;;;;;;9.00;8.00;;;;;23.83;46.77;98260.13;4854812;28;101683;-81
2021/06/29 06:08:48;;;;;;;;;7.00;6.33;;;;;23.77;46.94;98250.28;4854977;28;103785;-82
2021/06/29 06:11:15;;;;;;;;;8.00;7.00;;;;;23.89;46.80;98262.53;4859864;28;101804;-82
2021/06/29 06:13:56;;;;;;;;;6.00;5.67;;;;;23.90;46.71;98269.72;4858473;28;102531;-80
2021/06/29 06:16:37;;;;;;;;;7.00;5.67;;;;;23.84;46.88;98251.53;4873664;28;101807;-80
2021/06/29 06:19:05;;;;;;;;;6.67;6.00;;;;;23.93;46.84;98260.81;4840077;28;103402;-80
2021/06/29 06:21:34;;;;;;;;;8.67;7.67;;;;;23.88;46.86;98241.56;4857969;28;101884;-81
2021/06/29 06:24:03;;;;;;;;;6.33;6.33;;;;;23.86;47.11;98235.50;4855501;28;102486;-81
2021/06/29 06:26:44;;;;;;;;;6.00;5.00;;;;;23.87;47.06;98234.38;4823829;28;101415;-81
2021/06/29 06:29:24;;;;;;;;;5.00;4.33;;;;;23.86;47.04;98231.94;4848831;28;103796;-82
2021/06/29 06:31:52;;;;;;;;;7.00;7.00;;;;;24.00;46.86;98258.50;4848933;28;102027;-83
2021/06/29 06:34:20;;;;;;;;;6.00;5.00;;;;;23.91;47.01;98235.44;4868954;28;101746;-82
2021/06/29 06:37:00;;;;;;;;;6.00;6.00;;;;;24.00;46.96;98247.47;4855807;28;102178;-81
2021/06/29 06:39:41;;;;;;;;;6.00;5.33;;;;;23.98;47.08;98235.91;4766771;28;108248;-82
2021/06/29 06:42:22;;;;;;;;;7.00;5.67;;;;;24.00;47.32;98239.16;4851921;28;101734;-81
2021/06/29 06:45:05;;;;;;;;;8.00;7.00;;;;;24.01;47.22;98240.81;4840081;28;101825;-81
2021/06/29 06:47:46;;;;;;;;;6.67;6.67;;;;;24.05;47.01;98234.69;4839872;28;102276;-81
2021/06/29 06:50:26;;;;;;;;;7.00;7.00;;;;;24.02;47.44;98230.59;4857124;28;105932;-81
2021/06/29 06:53:07;;;;;;;;;7.33;7.33;;;;;23.99;47.35;98229.25;4834602;28;102698;-82
2021/06/29 06:55:48;;;;;;;;;6.67;6.33;;;;;24.00;47.46;98225.34;4861664;28;101929;-80
2021/06/29 06:58:29;;;;;;;;;7.67;6.00;;;;;24.07;47.27;98226.94;4864969;28;102186;-81
2021/06/29 07:01:10;;;;;;;;;6.33;5.67;;;;;24.05;47.64;98227.22;4796333;28;108887;-81
2021/06/29 07:03:41;;;;;;;;;7.33;6.00;;;;;24.07;47.46;98221.41;4830174;28;101549;-81
2021/06/29 07:06:22;;;;;;;;;7.00;6.33;;;;;24.04;47.38;98222.03;4815104;28;102503;-82
2021/06/29 07:09:03;;;;;;;;;4.67;4.00;;;;;24.00;47.45;98211.56;4824058;28;102386;-78
2021/06/29 07:11:46;;;;;;;;;8.33;7.00;;;;;24.01;47.44;98210.44;4838042;28;103098;-81
2021/06/29 07:14:14;;;;;;;;;6.00;6.00;;;;;24.09;47.54;98222.75;4823132;28;102168;-81
2021/06/29 07:16:44;;;;;;;;;7.00;5.67;;;;;24.13;47.56;98232.13;4833714;28;101786;-82
2021/06/29 07:19:13;;;;;;;;;6.00;6.00;;;;;24.08;47.46;98223.06;4839447;28;104865;-82
2021/06/29 07:21:53;;;;;;;;;7.00;6.00;;;;;24.05;47.75;98207.06;4818162;28;104035;-82
2021/06/29 07:24:34;;;;;;;;;8.00;6.67;;;;;24.13;47.81;98221.06;4827088;29;102205;-82
2021/06/29 07:27:15;;;;;;;;;5.00;5.00;;;;;24.17;47.58;98221.31;4822112;28;102520;-81
2021/06/29 07:29:56;;;;;;;;;8.00;8.00;;;;;24.19;47.52;98230.09;4828331;28;102645;-81
2021/06/29 07:32:41;;;;;;;;;5.00;5.00;;;;;24.18;47.91;98220.19;4808113;29;108214;-81
2021/06/29 07:35:22;;;;;;;;;6.00;6.00;;;;;24.21;47.60;98225.13;4817141;28;102083;-81
2021/06/29 07:38:03;;;;;;;;;4.00;4.00;;;;;24.19;47.55;98214.34;4836963;28;102499;-82
2021/06/29 07:40:44;;;;;;;;;7.67;7.33;;;;;24.17;47.76;98207.50;4771662;28;102122;-81
2021/06/29 07:43:25;;;;;;;;;6.00;6.00;;;;;24.23;47.71;98229.22;4848930;28;103601;-82
2021/06/29 07:46:06;;;;;;;;;7.00;6.00;;;;;24.23;47.68;98215.41;4820067;28;102063;-80
2021/06/29 07:48:34;;;;;;;;;1.33;1.00;;;;;24.17;47.60;98211.09;4852298;28;102547;-81
2021/06/29 07:51:15;;;;;;;;;5.33;5.33;;;;;24.16;47.82;98203.09;4772890;28;102571;-81
2021/06/29 07:53:56;;;;;;;;;5.00;4.33;;;;;24.25;47.55;98217.88;4825146;28;103457;-81
2021/06/29 07:56:37;;;;;;;;;7.00;6.00;;;;;24.26;47.69;98231.41;4840227;28;102897;-81
2021/06/29 07:59:18;;;;;;;;;5.00;5.00;;;;;24.31;47.88;98223.03;4851098;28;102129;-81
2021/06/29 08:01:59;;;;;;;;;5.00;5.00;;;;;24.23;47.88;98204.34;4855489;28;102410;-81
2021/06/29 08:04:41;;;;;;;;;5.67;5.00;;;;;24.29;48.00;98218.91;4788336;28;107856;-81
2021/06/29 08:07:22;;;;;;;;;6.00;6.00;;;;;24.27;47.92;98219.19;4845442;28;102169;-82
2021/06/29 08:10:06;;;;;;;;;5.00;5.00;;;;;24.29;47.93;98216.97;4846689;28;102182;-81
2021/06/29 08:12:46;;;;;;;;;4.67;4.33;;;;;24.32;47.67;98227.41;4813931;28;102142;-81
2021/06/29 08:15:27;;;;;;;;;5.00;5.00;;;;;24.36;47.96;98230.44;4840517;28;103962;-81
2021/06/29 08:18:08;;;;;;;;;6.00;6.00;;;;;24.25;47.82;98212.34;4843835;28;102019;-81
2021/06/29 08:20:50;;;;;;;;;4.00;4.00;;;;;24.28;47.75;98212.56;4853015;28;101813;-83
2021/06/29 08:23:31;;;;;;;;;5.67;5.00;;;;;24.37;48.13;98223.75;4858892;28;101611;-82
2021/06/29 08:26:12;;;;;;;;;4.00;4.00;;;;;24.39;48.09;98224.28;4850526;28;109100;-81
2021/06/29 08:28:53;;;;;;;;;5.67;5.67;;;;;24.36;47.94;98227.66;4854439;28;102408;-82
2021/06/29 08:31:34;;;;;;;;;6.33;6.00;;;;;24.36;47.94;98230.44;4849747;28;102286;-82
2021/06/29 08:34:14;;;;;;;;;4.67;4.00;;;;;24.39;47.86;98225.13;4796947;28;102059;-82
2021/06/29 08:36:55;;;;;;;;;5.67;5.67;;;;;24.42;47.88;98241.09;4842596;28;103636;-81
2021/06/29 08:39:36;;;;;;;;;4.33;4.00;;;;;24.43;48.00;98236.38;4836126;28;103199;-83
2021/06/29 08:42:21;;;;;;;;;6.33;5.00;;;;;24.45;48.23;98231.41;4846688;28;101865;-81
2021/06/29 08:45:02;;;;;;;;;5.00;4.33;;;;;24.43;47.91;98230.88;4860154;28;102551;-82
2021/06/29 08:47:43;;;;;;;;;6.00;5.00;;;;;24.46;47.65;98230.25;4803791;28;108256;-82
2021/06/29 08:50:29;;;;;;;;;5.00;5.00;;;;;24.43;48.04;98222.56;4865395;28;102345;-81
2021/06/29 08:53:01;;;;;;;;;6.00;5.00;;;;;24.49;47.98;98226.91;4855819;28;101717;-82
2021/06/29 08:55:40;;;;;;;;;5.00;5.00;;;;;24.51;47.86;98221.06;4856348;28;102084;-83
2021/06/29 08:58:22;;;;;;;;;5.67;5.00;;;;;24.49;48.03;98218.63;4788994;28;106233;-81
2021/06/29 09:01:03;;;;;;;;;4.67;4.67;;;;;24.44;47.74;98204.88;4841103;28;102619;-82
2021/06/29 09:03:31;;;;;;;;;6.00;5.33;;;;;24.45;47.81;98204.56;4862135;28;104156;-82
2021/06/29 09:06:09;;;;;;;;;6.33;4.67;;;;;24.50;47.91;98203.66;4846327;28;101384;-81
2021/06/29 09:08:50;;;;;;;;;6.67;5.00;;;;;24.52;47.96;98211.66;4856828;28;103715;-83
2021/06/29 09:11:37;;;;;;;;;4.33;4.33;;;;;24.54;48.07;98209.41;4866486;28;102173;-81
2021/06/29 09:14:18;;;;;;;;;7.67;7.67;;;;;24.54;47.96;98215.75;4815362;28;101948;-82
2021/06/29 09:17:19;;;;;;;;;5.33;5.33;;;;;24.52;48.18;98212.47;4840825;28;101842;-80
2021/06/29 09:20:00;;;;;;;;;5.00;5.00;;;;;24.55;48.26;98217.41;4765345;28;108061;-83
2021/06/29 09:22:41;;;;;;;;;4.67;4.67;;;;;24.49;47.70;98198.44;4848486;28;102237;-82
2021/06/29 09:25:26;;;;;;;;;5.33;5.33;;;;;24.56;47.85;98190.56;4857697;28;104272;-81
2021/06/29 09:28:07;;;;;;;;;4.67;4.67;;;;;24.57;48.08;98204.09;4858336;28;101812;-82
2021/06/29 09:30:49;;;;;;;;;5.67;5.00;;;;;24.51;48.00;98193.41;4785763;28;108290;-82
2021/06/29 09:33:32;;;;;;;;;4.33;4.33;;;;;24.55;47.85;98199.97;4856658;28;105175;-82
2021/06/29 09:36:14;;;;;;;;;5.33;5.33;;;;;24.55;48.11;98195.28;4853996;28;102743;-81
2021/06/29 09:38:44;;;;;;;;;5.33;5.33;;;;;24.61;48.04;98204.31;4858652;28;102295;-81
2021/06/29 09:41:31;;;;;;;;;4.67;4.00;;;;;24.48;47.88;98169.16;4866505;28;103115;-81
2021/06/29 09:44:09;;;;;;;;;5.33;4.33;;;;;24.51;48.11;98177.66;4868423;28;102119;-82
2021/06/29 09:46:38;;;;;;;;;5.67;5.00;;;;;24.50;48.13;98169.66;4870061;28;102387;-82
2021/06/29 09:49:22;;;;;;;;;8.33;4.33;;;;;24.54;47.98;98179.00;4844060;28;102301;-83
2021/06/29 09:52:04;;;;;;;;;4.00;4.00;;;;;24.55;47.98;98178.69;4840120;28;107837;-82
2021/06/29 09:54:45;;;;;;;;;6.00;6.00;;;;;24.62;48.05;98192.13;4835074;28;102070;-82
2021/06/29 09:57:26;;;;;;;;;4.67;4.67;;;;;24.59;48.06;98196.31;4829704;28;102252;-83
2021/06/29 09:59:54;;;;;;;;;5.33;4.33;;;;;24.60;48.08;98209.03;4864780;28;101364;-81
2021/06/29 10:02:31;;;;;;;;;5.33;5.00;;;;;24.54;48.04;98204.69;4845828;28;103721;-83
2021/06/29 10:05:21;;;;;;;;;6.00;5.00;;;;;24.63;47.98;98225.00;4859675;28;101998;-82
2021/06/29 10:07:48;;;;;;;;;7.00;5.33;;;;;24.60;48.16;98209.03;4804307;28;101412;-81
2021/06/29 10:10:17;;;;;;;;;3.67;3.33;;;;;24.55;47.82;98206.34;4852410;28;102229;-82
2021/06/29 10:12:45;;;;;;;;;4.33;4.33;;;;;24.64;48.33;98226.66;4854561;28;102622;-81
2021/06/29 10:15:13;;;;;;;;;5.00;5.00;;;;;24.54;48.08;98215.75;4848228;28;102428;-81
2021/06/29 10:17:42;;;;;;;;;4.00;4.00;;;;;24.61;47.98;98229.19;4865898;28;102460;-82
2021/06/29 10:23:19;;;;;;;;;5.00;5.00;;;;;24.67;47.81;98230.78;4769565;28;108711;-83
2021/06/29 10:25:52;;;;;;;;;4.67;4.00;;;;;24.63;48.22;98227.75;4871055;28;102229;-81
2021/06/29 10:28:33;;;;;;;;;5.33;5.00;;;;;24.66;48.54;98224.41;4860954;28;101851;-81
2021/06/29 10:31:26;;;;;;;;;4.67;4.67;;;;;24.61;48.16;98196.84;4823884;28;103707;-81
2021/06/29 10:33:58;;;;;;;;;3.33;3.33;;;;;24.65;48.15;98186.81;4844104;28;103193;-81
2021/06/29 10:36:41;;;;;;;;;7.33;6.33;;;;;24.58;48.37;98178.09;4854897;28;103641;-81
2021/06/29 10:39:30;;;;;;;;;5.33;4.67;;;;;24.64;48.38;98176.88;4843035;28;101817;-81
2021/06/29 10:42:14;;;;;;;;;4.33;4.33;;;;;24.59;48.05;98173.38;4838822;28;102109;-83
2021/06/29 10:44:54;;;;;;;;;4.00;4.00;;;;;24.68;48.17;98183.44;4858267;28;103591;-82
2021/06/29 10:47:36;;;;;;;;;4.67;4.67;;;;;24.72;48.28;98187.25;4874397;28;102431;-81
2021/06/29 10:50:16;;;;;;;;;5.00;5.00;;;;;24.64;48.24;98170.53;4853433;28;102235;-80
2021/06/29 10:52:51;;;;;;;;;4.00;4.00;;;;;24.62;48.31;98170.84;4853645;28;101797;-81
2021/06/29 10:55:26;;;;;;;;;6.00;4.00;;;;;24.72;48.34;98190.00;4875771;28;103253;-83
2021/06/29 10:57:58;;;;;;;;;5.67;5.67;;;;;24.72;48.48;98184.47;4823396;28;103009;-81
2021/06/29 11:00:32;;;;;;;;;4.00;4.00;;;;;24.70;48.29;98186.75;4851382;28;102574;-81
2021/06/29 11:03:08;;;;;;;;;5.33;5.33;;;;;24.75;48.32;98194.13;4860495;28;102378;-82
2021/06/29 11:05:53;;;;;;;;;4.00;4.00;;;;;24.72;48.39;98178.16;4806398;28;106562;-82
2021/06/29 11:08:46;;;;;;;;;6.00;4.00;;;;;24.70;48.36;98175.69;4835030;28;102112;-81
2021/06/29 11:11:28;;;;;;;;;4.33;4.33;;;;;24.78;48.29;98191.56;4806631;28;105864;-82
2021/06/29 11:14:27;;;;;;;;;3.00;3.00;;;;;24.70;48.22;98175.69;4877234;28;102487;-82
2021/06/29 11:17:08;;;;;;;;;4.67;4.00;;;;;24.72;48.05;98161.56;4805660;28;108677;-84
2021/06/29 11:20:07;;;;;;;;;3.67;3.67;;;;;24.76;48.17;98159.81;4767031;28;101923;-81
2021/06/29 11:22:48;;;;;;;;;5.33;5.33;;;;;24.76;48.01;98163.41;4806053;28;101728;-81
2021/06/29 11:25:42;;;;;;;;;5.00;5.00;;;;;24.87;48.24;98161.31;4872935;28;101508;-83
2021/06/29 11:28:25;;;;;;;;;6.00;5.33;;;;;24.82;48.10;98158.59;4815068;28;107966;-82
2021/06/29 11:31:01;;;;;;;;;5.00;5.00;;;;;24.87;48.25;98161.31;4872886;28;102506;-81
2021/06/29 11:33:45;;;;;;;;;5.00;5.00;;;;;24.90;48.10;98160.72;4867359;28;101991;-82
2021/06/29 11:36:35;;;;;;;;;4.00;4.00;;;;;24.86;48.29;98152.19;4866167;28;102508;-80
2021/06/29 11:39:13;;;;;;;;;1.00;1.00;;;;;24.92;48.18;98157.63;4866733;28;103589;-81
2021/06/29 11:42:11;;;;;;;;;3.00;3.00;;;;;24.86;48.21;98135.59;4808072;28;102543;-83
2021/06/29 11:44:53;;;;;;;;;6.00;6.00;;;;;24.84;48.22;98125.94;4794442;28;104683;-82
2021/06/29 11:47:22;;;;;;;;;5.67;5.00;;;;;24.95;48.21;98141.22;4856006;28;102571;-82
2021/06/29 11:50:14;;;;;;;;;4.00;4.00;;;;;24.93;48.09;98126.06;4856632;28;104138;-81
2021/06/29 11:52:59;;;;;;;;;4.33;4.33;;;;;24.96;48.04;98129.03;4792631;28;102175;-81
2021/06/29 11:55:39;;;;;;;;;4.00;4.00;;;;;24.98;48.20;98131.50;4860815;28;101816;-81
2021/06/29 11:58:20;;;;;;;;;4.33;4.00;;;;;24.98;48.21;98121.28;4808930;28;102357;-81
2021/06/29 12:01:06;;;;;;;;;5.00;4.00;;;;;24.96;48.20;98117.97;4860748;28;103580;-81
2021/06/29 12:03:47;;;;;;;;;5.33;5.00;;;;;24.93;47.93;98107.53;4868963;28;102479;-81
2021/06/29 12:06:18;;;;;;;;;5.00;4.00;;;;;25.01;48.00;98119.81;4853591;28;101854;-81
2021/06/29 12:08:59;;;;;;;;;6.00;5.00;;;;;25.01;48.30;98106.81;4839998;28;102508;-82
2021/06/29 12:11:40;;;;;;;;;5.00;4.33;;;;;25.04;48.07;98108.97;4855747;28;108215;-82
2021/06/29 12:14:19;;;;;;;;;6.00;4.33;;;;;25.01;47.98;98106.81;4853237;28;102143;-82
2021/06/29 12:16:46;;;;;;;;;5.00;4.67;;;;;24.95;48.24;98096.97;4835204;28;102091;-80
2021/06/29 12:19:15;;;;;;;;;6.00;5.00;;;;;25.01;47.91;98097.69;4847828;28;102456;-81
2021/06/29 12:21:55;;;;;;;;;3.00;2.00;;;;;25.08;48.27;98107.22;4868866;28;103600;-82
2021/06/29 12:24:36;;;;;;;;;4.00;4.00;;;;;25.00;48.27;98088.56;4832059;28;102609;-82